Time;durP1;ratioP1;P1;durP2;ratioP2;P2;SDS_P1;SDS_P2;PMS_P1;PMS_P2;Temp;Humidity;BMP_temperature;BMP_pressure;BME280_temperature;BME280_humidity;BME280_pressure;Samples;Min_cycle;Max_cycle;Signal;HPM_P1;HPM_P2
2023/01/10 00:01:56;;;;;;;14.10;12.73;;;;;;;6.26;97.79;99760.22;4999094;28;20207;-83
2023/01/10 00:04:22;;;;;;;14.77;13.27;;;;;;;6.32;98.10;99762.78;4998484;28;20203;-83
2023/01/10 00:06:48;;;;;;;14.57;13.10;;;;;;;6.33;97.56;99759.28;4998192;28;20258;-83
2023/01/10 00:09:15;;;;;;;14.10;12.70;;;;;;;6.39;97.50;99755.75;4998047;28;20265;-83
2023/01/10 00:14:28;;;;;;;13.77;12.67;;;;;;;6.20;98.20;99773.25;5000811;28;20726;-82
2023/01/10 00:16:55;;;;;;;14.70;13.43;;;;;;;6.37;98.72;99770.47;4989714;28;20776;-81
2023/01/10 00:19:21;;;;;;;14.83;13.47;;;;;;;6.23;98.74;99764.63;4998314;28;20268;-81
2023/01/10 00:21:48;;;;;;;15.53;14.03;;;;;;;6.32;99.02;99754.13;4997256;28;20262;-80
2023/01/10 00:24:18;;;;;;;16.10;14.03;;;;;;;6.38;98.44;99764.41;4998360;28;20203;-81
2023/01/10 00:26:50;;;;;;;17.50;14.27;;;;;;;6.40;98.03;99775.59;4997913;28;20683;-83
2023/01/10 00:29:18;;;;;;;15.77;14.20;;;;;;;6.43;98.23;99790.28;4998927;28;20210;-82
2023/01/10 00:31:44;;;;;;;15.20;13.67;;;;;;;6.61;97.62;99789.19;4998053;28;20215;-82
2023/01/10 00:34:10;;;;;;;14.17;12.87;;;;;;;6.47;97.45;99802.34;4998714;28;20233;-81
2023/01/10 00:36:37;;;;;;;15.43;13.97;;;;;;;6.34;97.06;99818.03;4999226;28;20720;-81
2023/01/10 00:39:08;;;;;;;15.60;14.00;;;;;;;6.39;96.77;99819.72;4998950;28;20214;-81
2023/01/10 00:44:19;;;;;;;15.30;13.77;;;;;;;6.29;97.89;99812.03;5001046;28;20255;-81
2023/01/10 00:46:46;;;;;;;15.67;13.53;;;;;;;6.41;96.82;99823.16;4999677;28;20331;-82
2023/01/10 00:49:15;;;;;;;14.30;13.00;;;;;;;6.48;97.20;99832.53;4998581;28;20211;-84
2023/01/10 00:51:41;;;;;;;14.30;12.93;;;;;;;6.31;97.62;99840.53;4998542;28;20288;-83
2023/01/10 00:54:09;;;;;;;13.47;12.13;;;;;;;6.43;98.30;99830.03;4998687;28;20635;-82
2023/01/10 00:56:35;;;;;;;13.60;12.40;;;;;;;6.41;97.71;99849.06;4998223;28;20258;-83
2023/01/10 00:59:01;;;;;;;13.37;12.37;;;;;;;6.41;97.01;99856.84;4998967;28;20225;-83
2023/01/10 01:01:29;;;;;;;13.73;12.27;;;;;;;6.36;96.99;99860.34;5000824;28;20635;-83
2023/01/10 01:03:55;;;;;;;13.50;12.30;;;;;;;6.46;97.13;99870.59;5001599;28;20210;-81
2023/01/10 01:06:22;;;;;;;14.33;13.13;;;;;;;6.20;98.19;99858.78;5001708;28;20624;-84
2023/01/10 01:08:48;;;;;;;14.57;13.37;;;;;;;6.22;99.14;99838.88;5001349;28;20732;-81
2023/01/10 01:11:14;;;;;;;12.23;11.13;;;;;;;6.30;99.54;99834.50;5000420;28;20262;-81
2023/01/10 01:13:41;;;;;;;13.33;12.13;;;;;;;6.45;98.79;99832.59;5001853;28;20207;-80
2023/01/10 01:16:08;;;;;;;12.70;11.60;;;;;;;6.46;98.21;99860.22;5004242;28;20228;-81
2023/01/10 01:18:35;;;;;;;11.53;10.53;;;;;;;6.25;97.34;99887.25;5001271;28;20235;-83
2023/01/10 01:21:04;;;;;;;12.10;10.87;;;;;;;6.30;97.50;99891.53;5000913;28;20562;-81
2023/01/10 01:23:32;;;;;;;12.37;11.27;;;;;;;6.23;97.53;99900.22;5001590;28;20245;-82
2023/01/10 01:25:58;;;;;;;11.87;10.47;;;;;;;6.24;97.37;99904.50;5000483;28;20687;-83
2023/01/10 01:28:25;;;;;;;12.33;11.13;;;;;;;6.15;97.93;99904.63;5000977;28;20239;-83
2023/01/10 01:30:52;;;;;;;11.87;10.77;;;;;;;6.12;98.50;99902.91;5001361;28;20204;-83
2023/01/10 01:33:19;;;;;;;12.27;11.07;;;;;;;6.16;97.74;99908.91;5001525;28;20687;-82
2023/01/10 01:35:48;;;;;;;9.87;9.07;;;;;;;6.18;97.50;99916.69;5001753;28;20763;-84
2023/01/10 01:38:16;;;;;;;11.70;10.70;;;;;;;6.11;96.70;99944.41;5002334;28;20242;-81
2023/01/10 01:40:42;;;;;;;10.07;9.07;;;;;;;5.90;98.15;99941.06;5001740;28;20708;-84
2023/01/10 01:43:21;;;;;;;13.30;9.93;;;;;;;5.88;98.28;99916.91;5002597;28;20207;-82
2023/01/10 01:45:48;;;;;;;10.70;9.70;;;;;;;6.11;98.98;99916.75;5006042;28;20260;-80
2023/01/10 01:48:20;;;;;;;16.70;10.23;;;;;;;5.99;99.98;99911.69;5002155;28;20230;-82
2023/01/10 01:50:53;;;;;;;11.53;10.20;;;;;;;6.00;100.00;99900.44;5002927;28;20297;-83
2023/01/10 01:53:25;;;;;;;10.27;9.23;;;;;;;5.89;100.00;99890.16;5002972;28;20297;-82
2023/01/10 01:55:56;;;;;;;10.83;9.83;;;;;;;5.96;100.00;99889.22;5002756;28;20317;-84
2023/01/10 01:58:26;;;;;;;10.70;9.53;;;;;;;6.08;100.00;99880.50;5003035;28;20301;-83
2023/01/10 02:00:53;;;;;;;11.43;10.33;;;;;;;6.05;100.00;99879.69;5001954;28;20206;-81
2023/01/10 02:03:19;;;;;;;11.50;10.30;;;;;;;6.13;100.00;99881.31;5001277;28;20723;-84
2023/01/10 02:05:47;;;;;;;11.13;10.20;;;;;;;6.29;100.00;99888.94;5002007;28;20207;-83
2023/01/10 02:08:14;;;;;;;13.03;11.73;;;;;;;6.31;100.00;99908.78;5001395;28;20631;-84
2023/01/10 02:10:47;;;;;;;11.00;9.90;;;;;;;6.15;100.00;99922.75;5001004;28;20739;-82
2023/01/10 02:13:17;;;;;;;10.93;9.33;;;;;;;6.13;100.00;99927.97;5001491;28;20214;-81
2023/01/10 02:15:44;;;;;;;11.40;10.23;;;;;;;6.24;100.00;99924.41;5004979;28;20230;-82
2023/01/10 02:18:11;;;;;;;10.90;9.97;;;;;;;6.08;100.00;99932.31;5002279;28;20242;-81
2023/01/10 02:20:49;;;;;;;15.60;10.60;;;;;;;6.00;100.00;99951.41;5002106;28;20209;-85
2023/01/10 02:23:52;;;;;;;10.67;9.67;;;;;;;5.82;100.00;99955.81;5003003;28;20212;-82
2023/01/10 02:27:00;;;;;;;13.20;9.97;;;;;;;5.76;100.00;99942.91;5002336;28;20227;-81
2023/01/10 02:30:04;;;;;;;9.50;8.60;;;;;;;5.73;100.00;99937.78;5003470;28;20213;-83
2023/01/10 02:32:43;;;;;;;9.40;8.50;;;;;;;5.75;100.00;99942.06;5003258;28;20218;-84
2023/01/10 02:35:24;;;;;;;9.47;8.37;;;;;;;5.85;100.00;99937.66;5003008;28;20229;-84
2023/01/10 02:38:00;;;;;;;10.20;9.30;;;;;;;5.76;100.00;99932.53;5002815;28;20226;-81
2023/01/10 02:40:33;;;;;;;9.37;8.50;;;;;;;5.72;100.00;99917.91;5003324;28;20266;-82
2023/01/10 02:43:06;;;;;;;9.27;8.40;;;;;;;5.80;100.00;99915.25;5002885;28;20286;-83
2023/01/10 02:45:38;;;;;;;11.57;9.30;;;;;;;5.79;100.00;99909.22;5006811;28;20718;-82
2023/01/10 02:48:06;;;;;;;10.33;9.27;;;;;;;5.88;100.00;99916.91;5003821;28;20280;-83
2023/01/10 02:50:52;;;;;;;9.87;8.97;;;;;;;5.88;100.00;99919.50;5003044;28;20693;-83
2023/01/10 02:53:23;;;;;;;10.40;9.03;;;;;;;5.80;100.00;99926.47;5003116;28;20860;-84
2023/01/10 02:56:35;;;;;;;9.57;7.70;;;;;;;5.83;100.00;99929.06;5003681;28;20581;-84
2023/01/10 02:59:20;;;;;;;9.53;7.83;;;;;;;5.83;100.00;99947.19;5003986;28;20203;-83
2023/01/10 03:01:56;;;;;;;7.87;7.17;;;;;;;5.75;100.00;99954.16;5003453;28;20209;-83
2023/01/10 03:04:34;;;;;;;8.87;7.97;;;;;;;5.75;100.00;99961.91;5004012;28;20554;-83
2023/01/10 03:07:11;;;;;;;11.13;7.20;;;;;;;5.73;100.00;99968.84;5003150;28;20789;-83
2023/01/10 03:09:50;;;;;;;13.53;6.97;;;;;;;5.86;100.00;99979.97;5004058;28;20272;-83
2023/01/10 03:12:23;;;;;;;10.10;6.20;;;;;;;5.85;100.00;99981.69;5004213;28;20204;-84
2023/01/10 03:14:51;;;;;;;8.53;6.67;;;;;;;5.85;100.00;99999.84;5007039;28;20741;-82
2023/01/10 03:17:20;;;;;;;9.93;5.43;;;;;;;5.77;100.00;100018.00;5004149;28;20270;-84
2023/01/10 03:19:51;;;;;;;6.47;5.00;;;;;;;5.76;100.00;100030.94;5003920;28;20209;-85
2023/01/10 03:22:17;;;;;;;5.43;4.13;;;;;;;5.85;99.98;100045.59;5003888;28;20218;-82
2023/01/10 03:24:49;;;;;;;6.20;4.30;;;;;;;5.84;98.89;100080.97;5003344;28;20238;-82
2023/01/10 03:27:22;;;;;;;6.47;3.90;;;;;;;5.84;98.52;100093.94;5003781;28;20242;-84
2023/01/10 03:29:54;;;;;;;5.33;3.03;;;;;;;5.85;97.32;100110.34;5004847;28;20237;-82
2023/01/10 03:32:24;;;;;;;2.93;2.20;;;;;;;5.77;96.55;100137.13;5004094;28;20213;-83
2023/01/10 03:34:53;;;;;;;4.17;2.30;;;;;;;5.75;97.14;100148.38;5003646;28;20209;-82
2023/01/10 03:37:27;;;;;;;5.07;2.43;;;;;;;5.63;98.21;100132.88;5003127;28;20234;-84
2023/01/10 03:40:00;;;;;;;4.50;2.10;;;;;;;5.54;100.00;100105.28;5001952;28;20210;-84
2023/01/10 03:44:42;;;;;;;6.20;2.10;;;;;;;5.38;100.00;100084.63;5003183;28;20210;-83
2023/01/10 03:45:27;;;;;;;4.03;2.10;;;;;;;5.46;100.00;100065.63;5006748;28;20234;-83
2023/01/10 03:47:55;;;;;;;3.53;1.83;;;;;;;5.59;100.00;100080.25;5005095;28;20683;-85
2023/01/10 03:50:26;;;;;;;5.63;2.57;;;;;;;5.54;100.00;100085.44;5004270;28;20214;-84
2023/01/10 03:52:52;;;;;;;5.90;2.40;;;;;;;5.61;100.00;100107.00;5004247;28;20930;-83
2023/01/10 03:55:22;;;;;;;9.10;2.67;;;;;;;5.54;100.00;100108.72;5004800;28;20322;-85
2023/01/10 03:57:48;;;;;;;3.77;2.60;;;;;;;5.49;100.00;100127.72;5003646;28;20293;-83
2023/01/10 04:00:16;;;;;;;5.00;2.70;;;;;;;5.45;100.00;100113.97;5004088;28;20267;-82
2023/01/10 04:02:43;;;;;;;3.10;2.63;;;;;;;5.52;100.00;100112.19;5005402;28;20205;-86
2023/01/10 04:05:09;;;;;;;8.63;2.80;;;;;;;5.50;100.00;100122.56;5005066;28;20229;-84
2023/01/10 04:07:37;;;;;;;6.63;3.20;;;;;;;5.48;100.00;100132.06;5004018;28;20297;-84
2023/01/10 04:10:04;;;;;;;6.87;3.13;;;;;;;5.46;100.00;100133.78;5005608;28;20202;-82
2023/01/10 04:12:31;;;;;;;5.33;2.80;;;;;;;5.53;100.00;100145.84;5003082;28;20234;-84
2023/01/10 04:14:57;;;;;;;3.33;2.40;;;;;;;5.57;99.66;100155.34;5013683;28;20635;-84
2023/01/10 04:17:23;;;;;;;13.77;3.23;;;;;;;5.56;99.75;100153.59;5009006;28;20237;-84
2023/01/10 04:19:50;;;;;;;5.73;3.60;;;;;;;5.64;99.71;100161.34;5010121;28;20214;-82
2023/01/10 04:22:16;;;;;;;7.97;3.10;;;;;;;5.63;99.01;100166.53;5010833;28;20235;-82
2023/01/10 04:24:45;;;;;;;7.93;3.10;;;;;;;5.62;99.09;100182.94;5008979;28;20231;-83
2023/01/10 04:27:12;;;;;;;8.40;3.03;;;;;;;5.72;98.17;100200.16;5006508;28;20240;-82
2023/01/10 04:29:38;;;;;;;6.43;2.83;;;;;;;5.80;97.56;100226.03;5006359;28;20214;-83
2023/01/10 04:32:05;;;;;;;7.50;3.20;;;;;;;5.67;97.77;100238.16;4992776;28;20260;-83
2023/01/10 04:34:31;;;;;;;5.00;3.10;;;;;;;5.75;97.80;100242.47;4994856;28;20706;-82
2023/01/10 04:36:57;;;;;;;6.13;2.97;;;;;;;5.71;98.01;100248.50;4996123;28;20772;-82
2023/01/10 04:39:24;;;;;;;8.60;3.10;;;;;;;5.69;97.70;100247.66;4996589;28;20213;-83
2023/01/10 04:41:51;;;;;;;6.37;2.90;;;;;;;5.76;97.57;100251.94;4996190;28;20199;-80
2023/01/10 04:44:18;;;;;;;4.83;2.90;;;;;;;5.83;98.29;100270.06;4998618;28;20588;-83
2023/01/10 04:46:44;;;;;;;9.77;3.33;;;;;;;5.95;97.32;100267.50;4997663;28;20277;-83
2023/01/10 04:49:11;;;;;;;6.30;3.13;;;;;;;6.04;97.13;100282.97;4996729;28;20209;-84
2023/01/10 04:51:37;;;;;;;7.63;4.00;;;;;;;5.92;96.49;100301.97;4996234;28;20214;-82
2023/01/10 04:54:04;;;;;;;6.57;3.87;;;;;;;5.87;96.42;100315.84;4996136;28;20218;-81
2023/01/10 04:56:30;;;;;;;6.13;3.67;;;;;;;5.92;96.86;100301.97;4996320;28;20774;-82
2023/01/10 04:58:58;;;;;;;5.23;3.40;;;;;;;6.05;96.35;100309.78;4996376;28;20214;-81
2023/01/10 05:01:26;;;;;;;7.17;3.23;;;;;;;6.03;96.19;100314.97;4996253;28;20215;-81
2023/01/10 05:03:54;;;;;;;7.27;3.20;;;;;;;5.94;96.80;100323.56;4996210;28;20215;-82
2023/01/10 05:06:22;;;;;;;9.43;3.43;;;;;;;6.11;96.10;100317.53;4995940;28;20203;-80
2023/01/10 05:08:48;;;;;;;5.47;3.40;;;;;;;6.06;96.01;100340.00;4996280;28;20210;-81
2023/01/10 05:11:15;;;;;;;6.00;3.43;;;;;;;6.15;95.44;100339.97;4995938;28;20211;-81
2023/01/10 05:13:41;;;;;;;4.70;3.90;;;;;;;6.24;95.57;100349.44;4996318;28;20256;-82
2023/01/10 05:16:09;;;;;;;5.90;3.17;;;;;;;6.21;94.94;100359.84;4999468;28;20223;-81
2023/01/10 05:18:36;;;;;;;7.37;3.43;;;;;;;6.26;94.50;100374.50;4995790;28;20209;-80
2023/01/10 05:21:03;;;;;;;7.70;4.23;;;;;;;6.11;94.91;100385.75;4995650;28;20218;-81
2023/01/10 05:23:30;;;;;;;7.03;3.60;;;;;;;6.20;94.50;100384.03;4995624;28;20258;-81
2023/01/10 05:25:57;;;;;;;7.10;4.17;;;;;;;5.99;94.30;100398.75;4995888;28;20203;-81
2023/01/10 05:28:23;;;;;;;6.23;3.70;;;;;;;6.06;94.34;100399.59;5042565;22;20242;-76
2023/01/10 05:30:50;;;;;;;6.57;4.10;;;;;;;5.94;94.96;100395.25;5053498;28;20208;-76
2023/01/10 05:33:17;;;;;;;8.73;4.03;;;;;;;6.13;94.91;100398.72;5054391;28;20213;-76
2023/01/10 05:35:44;;;;;;;9.50;4.77;;;;;;;5.99;94.33;100408.25;5054122;28;20255;-76
2023/01/10 05:38:10;;;;;;;7.90;4.27;;;;;;;6.06;94.57;100421.19;5054392;28;20285;-76
2023/01/10 05:40:36;;;;;;;7.87;4.47;;;;;;;6.02;94.29;100427.22;5054096;28;20274;-76
2023/01/10 05:43:03;;;;;;;7.63;4.20;;;;;;;5.63;94.66;100434.09;5054313;28;20271;-76
2023/01/10 05:45:29;;;;;;;7.50;3.80;;;;;;;5.75;95.97;100403.03;5052030;28;20212;-76
2023/01/10 05:47:55;;;;;;;11.27;4.33;;;;;;;5.81;95.53;100398.69;5064255;28;20217;-76
2023/01/10 05:50:23;;;;;;;6.03;4.03;;;;;;;5.74;95.56;100403.03;5061987;28;20209;-76
2023/01/10 05:52:49;;;;;;;7.23;4.10;;;;;;;5.71;94.75;100409.06;5073411;28;20266;-76
2023/01/10 05:55:16;;;;;;;6.43;4.37;;;;;;;5.74;94.83;100422.00;5073916;28;20207;-76
2023/01/10 05:57:42;;;;;;;7.07;4.60;;;;;;;5.70;94.66;100427.19;5074036;28;20287;-76
2023/01/10 06:00:10;;;;;;;6.77;4.17;;;;;;;5.73;94.21;100437.56;5073590;28;20736;-76
2023/01/10 06:02:36;;;;;;;11.73;4.63;;;;;;;5.76;94.16;100456.53;5073924;28;20211;-76
2023/01/10 06:05:03;;;;;;;10.07;5.37;;;;;;;5.48;93.99;100476.34;5073838;28;20211;-76
2023/01/10 06:07:31;;;;;;;8.83;5.40;;;;;;;5.45;93.60;100475.47;5073637;28;20274;-76
2023/01/10 06:09:57;;;;;;;8.20;4.13;;;;;;;5.45;94.02;100478.06;5073383;28;20559;-76
2023/01/10 06:12:23;;;;;;;7.70;5.13;;;;;;;5.35;93.93;100487.53;5073631;28;20584;-76
2023/01/10 06:14:50;;;;;;;7.30;4.60;;;;;;;5.44;93.96;100478.94;5073797;28;20623;-76
2023/01/10 06:17:16;;;;;;;7.37;5.17;;;;;;;5.52;93.91;100496.22;5073464;28;20247;-77
2023/01/10 06:19:42;;;;;;;8.93;4.77;;;;;;;5.48;92.98;100514.34;5066616;28;20265;-76
2023/01/10 06:22:09;;;;;;;6.97;4.20;;;;;;;5.47;92.48;100533.28;5066948;28;20208;-75
2023/01/10 06:24:36;;;;;;;7.50;4.80;;;;;;;5.47;93.47;100547.13;5073679;28;20231;-77
2023/01/10 06:27:03;;;;;;;7.23;4.10;;;;;;;5.52;93.16;100557.50;5073491;28;20203;-77
2023/01/10 06:29:29;;;;;;;6.73;4.10;;;;;;;5.39;92.00;100572.09;5073300;28;20210;-76
2023/01/10 06:31:55;;;;;;;6.60;4.10;;;;;;;5.40;91.76;100586.78;5072972;28;20632;-77
2023/01/10 06:34:22;;;;;;;12.33;4.90;;;;;;;5.34;92.19;100602.28;5073279;28;20213;-77
2023/01/10 06:36:48;;;;;;;7.50;5.70;;;;;;;5.33;92.16;100601.44;5046344;28;20270;-77
2023/01/10 06:39:14;;;;;;;6.40;4.87;;;;;;;5.18;nan;100597.03;5042351;28;20222;-77
2023/01/10 06:41:42;;;;;;;10.03;6.03;;;;;;;5.20;92.95;100568.56;5041962;28;20668;-77
2023/01/10 06:44:08;;;;;;;11.20;5.27;;;;;;;5.27;93.89;100561.69;5047913;28;20201;-77
2023/01/10 06:46:35;;;;;;;12.50;6.03;;;;;;;5.17;94.35;100564.25;5049804;28;20252;-77
2023/01/10 06:49:01;;;;;;;8.83;5.87;;;;;;;5.13;94.47;100538.34;5042233;28;20218;-77
2023/01/10 06:51:28;;;;;;;13.10;6.10;;;;;;;5.18;95.54;100527.16;5042978;28;20201;-77
2023/01/10 06:53:54;;;;;;;11.83;5.43;;;;;;;5.30;95.39;100518.59;5042199;28;20199;-76
2023/01/10 06:56:20;;;;;;;10.47;5.53;;;;;;;5.35;95.06;100529.81;5041958;28;20223;-77
2023/01/10 06:58:49;;;;;;;17.60;8.07;;;;;;;5.08;95.99;100524.53;5043564;28;20221;-77
2023/01/10 07:01:18;;;;;;;13.33;6.27;;;;;;;5.20;96.62;100500.44;5041482;28;20668;-77
2023/01/10 07:03:45;;;;;;;10.50;6.87;;;;;;;5.14;96.96;100498.69;5041593;28;20253;-76
2023/01/10 07:06:11;;;;;;;9.23;7.33;;;;;;;5.32;97.27;100482.34;5043355;28;20209;-76
2023/01/10 07:08:39;;;;;;;14.50;8.10;;;;;;;5.37;96.36;100478.03;5042234;28;20286;-77
2023/01/10 07:11:05;;;;;;;9.90;7.10;;;;;;;5.31;97.40;100486.69;5041638;28;20221;-79
2023/01/10 07:13:32;;;;;;;7.60;6.77;;;;;;;5.38;97.20;100488.41;5045095;28;20217;-77
2023/01/10 07:16:03;;;;;;;12.10;8.27;;;;;;;5.46;97.02;100488.44;5046595;28;20216;-76
2023/01/10 07:18:30;;;;;;;16.53;8.00;;;;;;;5.52;96.59;100487.59;5042914;28;20283;-77
2023/01/10 07:20:57;;;;;;;12.93;8.27;;;;;;;5.66;96.17;100504.00;5045621;28;20257;-77
2023/01/10 07:23:23;;;;;;;19.90;8.17;;;;;;;5.62;95.82;100511.78;5043439;28;20267;-77
2023/01/10 07:25:50;;;;;;;14.93;7.83;;;;;;;5.73;96.30;100516.13;5042251;28;20197;-77
2023/01/10 07:28:16;;;;;;;12.80;7.40;;;;;;;5.86;96.70;100493.69;5040391;28;20269;-77
2023/01/10 07:30:42;;;;;;;14.10;8.47;;;;;;;5.85;96.85;100497.16;5041840;28;20194;-76
2023/01/10 07:33:10;;;;;;;9.10;8.03;;;;;;;5.97;96.34;100509.28;5042271;28;20259;-77
2023/01/10 07:35:36;;;;;;;13.67;8.00;;;;;;;5.94;94.83;100530.81;5041129;28;20198;-77
2023/01/10 07:38:03;;;;;;;10.63;9.47;;;;;;;6.06;94.95;100555.06;5043111;28;20278;-77
2023/01/10 07:40:30;;;;;;;10.53;7.57;;;;;;;6.11;94.75;100577.53;5059828;28;20250;-77
2023/01/10 07:42:56;;;;;;;14.73;8.10;;;;;;;5.88;94.72;100586.94;5072226;28;20232;-76
2023/01/10 07:45:23;;;;;;;8.60;7.70;;;;;;;6.04;95.19;100583.56;5072646;28;20250;-76
2023/01/10 07:47:49;;;;;;;11.43;7.87;;;;;;;6.05;94.74;100581.84;5071492;28;20224;-77
2023/01/10 07:50:17;;;;;;;14.90;9.50;;;;;;;6.07;93.79;100585.31;5070486;28;20210;-77
2023/01/10 07:52:43;;;;;;;9.80;8.87;;;;;;;6.12;94.55;100601.72;5061259;28;20228;-77
2023/01/10 07:55:10;;;;;;;13.83;8.67;;;;;;;6.14;93.75;100610.34;5072544;28;20258;-77
2023/01/10 07:57:36;;;;;;;12.97;9.43;;;;;;;6.24;93.37;100614.69;5072487;28;20349;-77
2023/01/10 08:00:03;;;;;;;21.60;9.53;;;;;;;6.32;92.49;100631.16;5071864;28;20265;-78
2023/01/10 08:02:30;;;;;;;21.07;8.67;;;;;;;6.32;92.58;100659.66;5072549;28;20257;-77
2023/01/10 08:04:56;;;;;;;15.93;9.30;;;;;;;6.26;92.16;100670.00;5072199;28;20204;-77
2023/01/10 08:07:24;;;;;;;10.23;8.13;;;;;;;6.23;92.04;100676.91;5072160;28;20645;-77
2023/01/10 08:09:50;;;;;;;14.00;9.10;;;;;;;6.31;91.94;100686.44;5070880;28;20628;-76
2023/01/10 08:12:16;;;;;;;13.70;9.50;;;;;;;6.14;92.74;100689.00;5071758;28;20253;-77
2023/01/10 08:14:43;;;;;;;16.37;9.37;;;;;;;6.21;92.65;100692.47;5071726;28;20208;-77
2023/01/10 08:17:09;;;;;;;15.00;9.67;;;;;;;6.21;93.00;100687.28;5071861;28;20224;-77
2023/01/10 08:19:36;;;;;;;11.97;10.10;;;;;;;6.26;92.25;100682.94;5071874;28;20209;-77
2023/01/10 08:22:02;;;;;;;10.77;8.90;;;;;;;6.30;92.08;100684.72;5064762;28;20204;-76
2023/01/10 08:24:30;;;;;;;10.17;9.07;;;;;;;6.34;92.13;100690.75;5068493;28;20213;-77
2023/01/10 08:26:57;;;;;;;14.23;9.07;;;;;;;6.38;91.41;100702.84;5071768;28;20737;-77
2023/01/10 08:29:24;;;;;;;11.73;9.30;;;;;;;6.39;91.82;100704.59;5071447;28;20270;-76
2023/01/10 08:31:50;;;;;;;11.93;9.23;;;;;;;6.35;91.39;100719.28;5071408;28;20242;-77
2023/01/10 08:34:17;;;;;;;11.83;8.93;;;;;;;6.43;92.05;100713.25;5071803;28;20204;-77
2023/01/10 08:36:43;;;;;;;15.97;9.13;;;;;;;6.48;91.10;100730.56;5071249;28;20266;-77
2023/01/10 08:39:10;;;;;;;12.50;8.07;;;;;;;6.42;91.98;100743.53;5071532;28;20586;-77
2023/01/10 08:41:38;;;;;;;11.70;8.37;;;;;;;6.50;91.59;100752.19;5071150;28;20676;-76
2023/01/10 08:44:04;;;;;;;15.07;10.40;;;;;;;6.32;91.75;100757.28;5071467;28;20204;-77
2023/01/10 08:46:31;;;;;;;11.93;8.40;;;;;;;6.28;92.55;100760.72;5071506;28;20625;-77
2023/01/10 08:48:57;;;;;;;12.87;8.20;;;;;;;6.15;93.13;100747.72;5071183;28;20267;-77
2023/01/10 08:51:24;;;;;;;13.63;9.27;;;;;;;6.19;92.61;100735.66;5068966;28;20725;-77
2023/01/10 08:53:50;;;;;;;12.30;8.97;;;;;;;6.32;92.90;100719.28;5062858;28;20196;-77
2023/01/10 08:56:17;;;;;;;13.30;9.73;;;;;;;6.39;92.83;100702.00;5071439;28;20257;-77
2023/01/10 08:58:44;;;;;;;14.60;8.63;;;;;;;6.41;93.06;100689.06;5071339;28;20286;-76
2023/01/10 09:01:12;;;;;;;14.40;9.40;;;;;;;6.48;92.12;100696.84;5070783;28;20266;-77
2023/01/10 09:03:39;;;;;;;13.17;7.90;;;;;;;6.54;92.45;100706.34;5071460;28;20217;-77
2023/01/10 09:06:07;;;;;;;8.80;7.63;;;;;;;6.57;91.04;100720.19;5071158;28;20201;-76
2023/01/10 09:08:34;;;;;;;14.90;8.17;;;;;;;6.48;90.85;100737.47;5071317;28;20256;-77
2023/01/10 09:11:00;;;;;;;9.43;8.23;;;;;;;6.54;90.74;100750.44;5070839;28;20250;-77
2023/01/10 09:13:27;;;;;;;12.53;7.63;;;;;;;6.55;90.86;100754.78;5071218;28;20204;-77
2023/01/10 09:15:56;;;;;;;10.77;7.67;;;;;;;6.68;90.83;100759.16;5070887;28;20311;-77
2023/01/10 09:18:23;;;;;;;16.73;8.10;;;;;;;6.70;90.87;100769.50;5070919;28;20606;-76
2023/01/10 09:20:51;;;;;;;13.07;7.17;;;;;;;6.80;90.75;100772.97;5071570;28;20734;-77
2023/01/10 09:23:19;;;;;;;12.07;7.80;;;;;;;6.70;90.49;100795.44;5066354;28;20200;-77
2023/01/10 09:25:47;;;;;;;9.90;6.73;;;;;;;6.79;90.58;100794.63;5074735;28;20204;-76
2023/01/10 09:28:14;;;;;;;11.97;7.20;;;;;;;6.89;91.04;100802.41;5074407;28;20248;-77
2023/01/10 09:30:40;;;;;;;12.83;7.20;;;;;;;6.93;89.59;100817.13;5074409;28;20235;-77
2023/01/10 09:33:08;;;;;;;11.93;8.43;;;;;;;6.74;90.09;100842.16;5074689;28;20255;-77
2023/01/10 09:35:36;;;;;;;14.70;7.60;;;;;;;6.49;89.84;100841.19;5074425;28;20243;-76
2023/01/10 09:38:04;;;;;;;9.47;7.27;;;;;;;6.41;88.88;100861.06;5074415;28;20232;-77
2023/01/10 09:40:43;;;;;;;17.70;7.37;;;;;;;6.52;89.53;100863.69;5074218;28;20214;-77
2023/01/10 09:43:16;;;;;;;15.63;7.50;;;;;;;6.54;90.36;100844.69;5074538;28;20261;-77
2023/01/10 09:45:56;;;;;;;11.00;6.87;;;;;;;6.64;90.28;100843.00;5074535;28;20635;-76
2023/01/10 09:48:32;;;;;;;10.60;8.00;;;;;;;6.70;89.24;100853.41;5073693;28;20221;-77
2023/01/10 09:51:14;;;;;;;13.43;7.37;;;;;;;6.78;90.09;100855.13;5072059;28;20212;-77
2023/01/10 09:53:45;;;;;;;9.20;7.30;;;;;;;6.77;89.75;100859.47;5065801;28;20204;-77
2023/01/10 09:56:14;;;;;;;10.10;7.47;;;;;;;6.82;90.01;100862.94;5074087;28;20635;-77
2023/01/10 09:58:41;;;;;;;15.50;7.60;;;;;;;6.88;89.25;100851.72;5074167;28;20224;-77
2023/01/10 10:01:12;;;;;;;11.83;8.00;;;;;;;6.79;90.14;100854.28;5073710;28;20200;-77
2023/01/10 10:03:45;;;;;;;11.37;7.20;;;;;;;6.80;89.81;100848.22;5074027;28;20683;-76
2023/01/10 10:06:13;;;;;;;15.03;7.90;;;;;;;6.86;89.77;100863.84;5073939;28;20205;-77
2023/01/10 10:08:40;;;;;;;12.23;8.60;;;;;;;6.81;90.12;100855.16;5073675;28;20225;-77
2023/01/10 10:11:24;;;;;;;12.70;8.07;;;;;;;6.66;90.72;100851.66;5073608;28;20264;-77
2023/01/10 10:13:59;;;;;;;14.83;8.53;;;;;;;6.47;91.25;100840.31;5073976;28;20647;-76
2023/01/10 10:16:36;;;;;;;18.50;8.93;;;;;;;6.55;91.59;100809.25;5074465;28;20234;-77
2023/01/10 10:19:10;;;;;;;20.53;8.40;;;;;;;6.54;91.24;100807.50;5066701;28;20279;-77
2023/01/10 10:21:46;;;;;;;15.43;9.27;;;;;;;6.48;92.08;100797.09;5057511;28;20222;-78
2023/01/10 10:24:34;;;;;;;13.10;8.73;;;;;;;6.54;91.51;100791.94;5071245;28;20209;-79
2023/01/10 10:27:10;;;;;;;14.33;9.50;;;;;;;6.66;91.24;100793.69;5074932;28;20208;-77
2023/01/10 10:30:01;;;;;;;12.10;8.10;;;;;;;6.84;91.67;100793.78;5075184;28;20208;-78
2023/01/10 10:32:45;;;;;;;11.93;8.33;;;;;;;6.82;90.98;100808.47;5074736;28;20223;-78
2023/01/10 10:35:18;;;;;;;16.37;8.00;;;;;;;6.74;88.78;100824.00;5069703;28;20672;-78
2023/01/10 10:37:49;;;;;;;22.43;8.93;;;;;;;6.86;90.12;100824.91;5043143;28;20282;-76
2023/01/10 10:40:18;;;;;;;12.67;9.03;;;;;;;6.93;90.38;100824.91;5042426;28;20194;-78
2023/01/10 10:42:48;;;;;;;10.53;8.87;;;;;;;7.00;90.11;100841.38;5045428;28;20201;-78
2023/01/10 10:45:18;;;;;;;15.90;9.80;;;;;;;7.01;89.45;100853.47;5053916;28;20197;-78
2023/01/10 10:47:50;;;;;;;11.30;8.50;;;;;;;6.92;90.42;100849.13;5053904;28;20606;-78
2023/01/10 10:50:27;;;;;;;15.77;9.10;;;;;;;6.75;90.30;100843.88;4354235;28;10000733;-77
2023/01/10 10:52:54;;;;;;;23.80;9.10;;;;;;;6.81;90.35;100845.63;5050527;28;20196;-77
2023/01/10 10:55:27;;;;;;;21.63;9.10;;;;;;;6.85;90.83;100831.81;5051002;28;20537;-77
2023/01/10 10:57:54;;;;;;;11.37;8.73;;;;;;;6.79;90.76;100836.13;5050684;28;20255;-77
2023/01/10 11:00:23;;;;;;;16.03;8.47;;;;;;;6.91;91.10;100831.81;5050227;28;20213;-77
2023/01/10 11:02:53;;;;;;;14.70;7.90;;;;;;;6.90;89.63;100844.81;5051001;28;20922;-78
2023/01/10 11:05:30;;;;;;;9.67;7.07;;;;;;;7.03;89.73;100850.88;5050820;28;20209;-77
2023/01/10 11:08:02;;;;;;;10.23;7.53;;;;;;;7.02;89.70;100864.75;5050020;28;20966;-78
2023/01/10 11:10:34;;;;;;;9.83;7.87;;;;;;;7.03;89.58;100862.13;5050413;28;20205;-78
2023/01/10 11:13:03;;;;;;;13.17;7.90;;;;;;;7.08;89.26;100873.41;5050310;28;20296;-77
2023/01/10 11:15:40;;;;;;;13.30;7.07;;;;;;;7.09;89.34;100892.44;5050259;28;20209;-77
2023/01/10 11:18:11;;;;;;;11.97;7.47;;;;;;;6.87;88.74;100901.88;5050495;28;20236;-77
2023/01/10 11:20:47;;;;;;;13.33;8.70;;;;;;;6.82;90.09;100888.00;5052190;28;20307;-78
2023/01/10 11:23:22;;;;;;;12.83;7.83;;;;;;;7.00;89.65;100874.22;5065119;28;20219;-76
2023/01/10 11:25:49;;;;;;;12.97;7.30;;;;;;;7.10;89.68;100879.47;5074185;28;20759;-76
2023/01/10 11:28:17;;;;;;;13.10;8.77;;;;;;;7.01;89.34;100891.56;5073907;28;20228;-77
2023/01/10 11:30:48;;;;;;;12.53;7.17;;;;;;;7.00;88.92;100895.00;5074467;28;20204;-78
2023/01/10 11:33:21;;;;;;;9.50;6.20;;;;;;;6.97;88.98;100891.53;5074090;28;20213;-77
2023/01/10 11:35:59;;;;;;;12.83;7.93;;;;;;;6.91;89.13;100895.84;5073297;28;20262;-77
2023/01/10 11:38:28;;;;;;;12.40;5.97;;;;;;;7.07;89.20;100891.56;5074071;28;20236;-77
2023/01/10 11:40:56;;;;;;;12.00;6.40;;;;;;;6.94;88.53;100898.47;5070602;28;20205;-76
2023/01/10 11:43:32;;;;;;;11.67;6.57;;;;;;;7.02;88.10;100888.09;5069713;28;20271;-76